createdAt,value
2023-04-16T00:00:29.012Z,100235.37
2023-04-16T00:02:57.708Z,100234.34
2023-04-16T00:05:27.684Z,100237.20
2023-04-16T00:07:56.076Z,100241.23
2023-04-16T00:10:24.394Z,100241.09
2023-04-16T00:12:52.528Z,100243.45
2023-04-16T00:15:20.941Z,100248.48
2023-04-16T00:17:49.186Z,100249.82
2023-04-16T00:20:17.594Z,100247.52
2023-04-16T00:22:46.196Z,100245.68
2023-04-16T00:25:14.564Z,100246.14
2023-04-16T00:27:42.766Z,100249.46
2023-04-16T00:30:11.440Z,100249.38
2023-04-16T00:32:39.826Z,100253.05
2023-04-16T00:35:08.475Z,100256.69
2023-04-16T00:37:36.826Z,100252.67
2023-04-16T00:40:05.582Z,100253.55
2023-04-16T00:42:34.951Z,100258.89
2023-04-16T00:45:03.415Z,100255.70
2023-04-16T00:47:32.213Z,100261.12
2023-04-16T00:50:00.556Z,100260.55
2023-04-16T00:52:29.351Z,100259.75
2023-04-16T00:54:57.523Z,100256.41
2023-04-16T00:57:25.737Z,100264.15
2023-04-16T00:59:54.462Z,100260.77
2023-04-16T01:02:22.893Z,100260.36
2023-04-16T01:04:52.059Z,100264.80
2023-04-16T01:07:20.307Z,100265.63
2023-04-16T01:09:48.522Z,100267.91
2023-04-16T01:12:17.438Z,100264.73
2023-04-16T01:14:45.936Z,100268.32
2023-04-16T01:17:14.523Z,100263.46
2023-04-16T01:19:43.315Z,100266.57
2023-04-16T01:22:11.648Z,100264.49
2023-04-16T01:24:40.704Z,100266.26
2023-04-16T01:27:11.924Z,100267.51
2023-04-16T01:29:40.160Z,100265.41
2023-04-16T01:32:08.812Z,100265.85
2023-04-16T01:34:40.976Z,100265.77
2023-04-16T01:37:11.342Z,100265.85
2023-04-16T01:39:40.136Z,100265.80
2023-04-16T01:42:08.735Z,100262.91
2023-04-16T01:44:37.383Z,100265.02
2023-04-16T01:47:05.838Z,100267.90
2023-04-16T01:49:34.155Z,100270.21
2023-04-16T01:52:02.303Z,100270.55
2023-04-16T01:54:31.506Z,100270.19
2023-04-16T01:57:01.857Z,100271.48
2023-04-16T01:59:30.325Z,100270.10
2023-04-16T02:02:11.567Z,100265.98
2023-04-16T02:04:41.248Z,100269.42
2023-04-16T02:07:10.109Z,100267.61
2023-04-16T02:09:39.593Z,100270.66
2023-04-16T02:12:09.707Z,100271.34
2023-04-16T02:14:37.969Z,100270.16
2023-04-16T02:17:06.401Z,100270.63
2023-04-16T02:19:44.983Z,100268.27
2023-04-16T02:22:13.548Z,100272.05
2023-04-16T02:24:42.044Z,100270.20
2023-04-16T02:27:11.489Z,100271.34
2023-04-16T02:29:40.793Z,100274.23
2023-04-16T02:32:13.387Z,100280.66
2023-04-16T02:34:43.529Z,100280.81
2023-04-16T02:37:12.388Z,100277.48
2023-04-16T02:39:41.447Z,100278.98
2023-04-16T02:42:09.773Z,100279.85
2023-04-16T02:44:38.072Z,100286.03
2023-04-16T02:47:06.316Z,100288.07
2023-04-16T02:49:35.929Z,100290.98
2023-04-16T02:52:04.151Z,100290.84
2023-04-16T02:54:32.529Z,100290.27
2023-04-16T02:57:02.515Z,100293.52
2023-04-16T02:59:30.860Z,100301.58
2023-04-16T03:01:59.429Z,100308.13
2023-04-16T03:04:27.908Z,100307.83
2023-04-16T03:06:57.096Z,100309.21
2023-04-16T03:09:25.773Z,100309.60
2023-04-16T03:11:54.182Z,100310.73
2023-04-16T03:14:22.265Z,100316.02
2023-04-16T03:16:50.518Z,100316.77
2023-04-16T03:19:18.773Z,100313.81
2023-04-16T03:21:47.076Z,100316.79
2023-04-16T03:24:15.530Z,100322.75
2023-04-16T03:26:43.751Z,100323.67
2023-04-16T03:29:12.231Z,100327.15
2023-04-16T03:31:41.550Z,100328.36
2023-04-16T03:34:09.974Z,100330.77
2023-04-16T03:36:38.499Z,100332.73
2023-04-16T03:39:07.196Z,100338.63
2023-04-16T03:41:35.678Z,100339.34
2023-04-16T03:44:04.752Z,100343.39
2023-04-16T03:46:34.328Z,100341.69
2023-04-16T03:49:02.782Z,100342.32
2023-04-16T03:51:31.436Z,100346.48
2023-04-16T03:53:59.996Z,100346.41
2023-04-16T03:56:29.238Z,100347.35
2023-04-16T03:58:57.916Z,100347.79
2023-04-16T04:01:26.157Z,100347.56
2023-04-16T04:03:54.875Z,100350.05
2023-04-16T04:06:23.317Z,100350.48
2023-04-16T04:08:51.964Z,100346.63
2023-04-16T04:11:20.375Z,100345.64
2023-04-16T04:13:48.479Z,100343.29
2023-04-16T04:16:17.750Z,100341.27
2023-04-16T04:18:46.497Z,100337.70
2023-04-16T04:21:14.582Z,100338.69
2023-04-16T04:23:43.876Z,100344.98
2023-04-16T04:26:12.685Z,100348.81
2023-04-16T04:28:41.454Z,100350.19
2023-04-16T04:31:09.940Z,100355.09
2023-04-16T04:33:38.066Z,100356.48
2023-04-16T04:36:07.258Z,100354.61
2023-04-16T04:38:35.978Z,100355.63
2023-04-16T04:41:05.828Z,100356.42
2023-04-16T04:43:35.916Z,100360.00
2023-04-16T04:46:04.236Z,100363.08
2023-04-16T04:48:33.069Z,100363.20
2023-04-16T04:51:04.243Z,100367.84
2023-04-16T04:53:34.575Z,100368.34
2023-04-16T04:56:12.188Z,100369.27
2023-04-16T04:58:42.000Z,100372.59
2023-04-16T05:01:10.640Z,100375.55
2023-04-16T05:03:39.114Z,100373.27
2023-04-16T05:06:07.728Z,100378.56
2023-04-16T05:08:36.533Z,100385.63
2023-04-16T05:11:04.852Z,100387.70
2023-04-16T05:13:33.302Z,100382.92
2023-04-16T05:16:01.611Z,100388.42
2023-04-16T05:18:30.483Z,100385.89
2023-04-16T05:20:58.618Z,100391.41
2023-04-16T05:23:27.136Z,100390.23
2023-04-16T05:25:55.620Z,100390.28
2023-04-16T05:28:23.834Z,100392.15
2023-04-16T05:30:52.069Z,100394.46
2023-04-16T05:33:21.119Z,100395.23
2023-04-16T05:35:49.262Z,100395.46
2023-04-16T05:38:18.074Z,100397.92
2023-04-16T05:40:46.355Z,100398.09
2023-04-16T05:43:15.447Z,100397.44
2023-04-16T05:45:43.602Z,100399.02
2023-04-16T05:48:12.659Z,100403.52
2023-04-16T05:50:40.813Z,100408.23
2023-04-16T05:53:09.399Z,100411.98
2023-04-16T05:55:37.976Z,100413.66
2023-04-16T05:58:07.093Z,100413.48
2023-04-16T06:00:36.204Z,100416.04
2023-04-16T06:03:04.659Z,100416.04
2023-04-16T06:05:34.406Z,100422.25
2023-04-16T06:08:02.851Z,100426.29
2023-04-16T06:10:31.488Z,100428.39
2023-04-16T06:12:59.954Z,100429.23
2023-04-16T06:15:29.845Z,100428.39
2023-04-16T06:18:00.249Z,100431.05
2023-04-16T06:20:29.272Z,100433.98
2023-04-16T06:22:57.559Z,100433.94
2023-04-16T06:25:25.742Z,100437.73
2023-04-16T06:27:54.169Z,100437.69
2023-04-16T06:30:22.324Z,100440.35
2023-04-16T06:32:50.687Z,100442.85
2023-04-16T06:35:20.251Z,100446.52
2023-04-16T06:37:48.542Z,100447.96
2023-04-16T06:40:16.730Z,100454.52
2023-04-16T06:42:45.797Z,100451.73
2023-04-16T06:45:14.026Z,100457.16
2023-04-16T06:47:42.246Z,100459.48
2023-04-16T06:50:10.807Z,100462.67
2023-04-16T06:52:39.520Z,100462.91
2023-04-16T06:55:09.869Z,100463.97
2023-04-16T06:57:38.430Z,100464.52
2023-04-16T07:00:07.195Z,100468.61
2023-04-16T07:02:35.990Z,100467.16
2023-04-16T07:05:04.647Z,100473.52
2023-04-16T07:07:33.038Z,100475.14
2023-04-16T07:10:01.229Z,100481.31
2023-04-16T07:12:29.456Z,100478.87
2023-04-16T07:14:57.704Z,100480.52
2023-04-16T07:17:26.439Z,100478.10
2023-04-16T07:19:54.715Z,100478.74
2023-04-16T07:22:23.153Z,100479.83
2023-04-16T07:24:51.256Z,100482.24
2023-04-16T07:27:19.440Z,100486.16
2023-04-16T07:29:47.496Z,100480.97
2023-04-16T07:32:17.920Z,100478.52
2023-04-16T07:34:46.709Z,100480.52
2023-04-16T07:37:14.959Z,100480.69
2023-04-16T07:39:43.086Z,100475.55
2023-04-16T07:42:12.496Z,100473.73
2023-04-16T07:44:41.193Z,100473.58
2023-04-16T07:47:10.433Z,100471.09
2023-04-16T07:49:38.906Z,100467.37
2023-04-16T07:52:07.375Z,100469.24
2023-04-16T07:54:37.336Z,100469.25
2023-04-16T07:57:05.715Z,100467.02
2023-04-16T07:59:34.267Z,100466.04
2023-04-16T08:02:04.160Z,100463.31
2023-04-16T08:04:32.634Z,100471.33
2023-04-16T08:07:02.091Z,100466.10
2023-04-16T08:09:30.460Z,100470.13
2023-04-16T08:12:00.811Z,100473.39
2023-04-16T08:14:29.187Z,100472.48
2023-04-16T08:16:58.369Z,100472.29
2023-04-16T08:19:26.516Z,100470.61
2023-04-16T08:21:56.632Z,100474.08
2023-04-16T08:24:24.913Z,100471.55
2023-04-16T08:26:52.996Z,100470.75
2023-04-16T08:29:22.641Z,100467.75
2023-04-16T08:31:55.064Z,100464.87
2023-04-16T08:34:23.398Z,100466.10
2023-04-16T08:36:52.060Z,100467.83
2023-04-16T08:39:21.632Z,100469.77
2023-04-16T08:41:49.802Z,100469.08
2023-04-16T08:44:29.618Z,100469.27
2023-04-16T08:46:59.153Z,100472.03
2023-04-16T08:50:57.441Z,100476.69
2023-04-16T08:53:33.523Z,100471.98
2023-04-16T08:56:03.049Z,100471.39
2023-04-16T08:58:34.125Z,100466.90
2023-04-16T09:01:05.557Z,100467.88
2023-04-16T09:03:36.302Z,100465.34
2023-04-16T09:06:06.203Z,100465.81
2023-04-16T09:08:35.958Z,100464.64
2023-04-16T09:11:04.110Z,100467.73
2023-04-16T09:13:34.752Z,100464.73
2023-04-16T09:16:03.670Z,100465.54
2023-04-16T09:18:32.934Z,100466.41
2023-04-16T09:21:01.697Z,100465.42
2023-04-16T09:23:32.102Z,100468.92
2023-04-16T09:26:00.472Z,100472.66
2023-04-16T09:28:45.338Z,100474.51
2023-04-16T09:31:16.280Z,100474.89
2023-04-16T09:33:45.403Z,100475.42
2023-04-16T09:36:13.626Z,100477.73
2023-04-16T09:38:51.934Z,100482.16
2023-04-16T09:41:24.535Z,100480.38
2023-04-16T09:43:56.928Z,100482.17
2023-04-16T09:46:46.386Z,100487.69
2023-04-16T09:49:16.176Z,100490.16
2023-04-16T09:51:55.618Z,100492.71
2023-04-16T09:54:23.778Z,100492.72
2023-04-16T09:56:52.284Z,100499.63
2023-04-16T09:59:23.988Z,100494.87
2023-04-16T10:02:14.197Z,100499.03
2023-04-16T10:04:47.830Z,100500.98
2023-04-16T10:07:17.413Z,100506.48
2023-04-16T10:09:48.519Z,100505.93
2023-04-16T10:12:17.814Z,100505.55
2023-04-16T10:14:48.301Z,100503.14
2023-04-16T10:17:17.913Z,100508.81
2023-04-16T10:19:46.307Z,100511.60
2023-04-16T10:22:14.435Z,100514.05
2023-04-16T10:24:43.402Z,100514.70
2023-04-16T10:27:14.999Z,100514.21
2023-04-16T10:29:43.666Z,100513.86
2023-04-16T10:32:13.244Z,100516.54
2023-04-16T10:34:41.449Z,100516.34
2023-04-16T10:37:09.585Z,100518.17
2023-04-16T10:39:39.739Z,100519.50
2023-04-16T10:42:09.856Z,100509.52
2023-04-16T10:44:38.214Z,100512.61
2023-04-16T10:47:13.258Z,100516.19
2023-04-16T10:49:41.703Z,100512.98
2023-04-16T10:52:12.498Z,100518.09
2023-04-16T10:54:41.141Z,100514.14
2023-04-16T10:57:15.251Z,100515.88
2023-04-16T10:59:44.071Z,100516.46
2023-04-16T11:02:15.049Z,100516.13
2023-04-16T11:04:45.219Z,100520.14
2023-04-16T11:07:32.375Z,100517.98
2023-04-16T11:10:05.285Z,100524.10
2023-04-16T11:12:38.203Z,100524.13
2023-04-16T11:15:15.425Z,100524.79
2023-04-16T11:17:46.221Z,100520.39
2023-04-16T11:20:20.558Z,100520.66
2023-04-16T11:22:53.408Z,100520.45
2023-04-16T11:25:26.386Z,100529.58
2023-04-16T11:27:54.989Z,100524.88
2023-04-16T11:30:32.350Z,100527.61
2023-04-16T11:33:05.397Z,100525.66
2023-04-16T11:35:33.853Z,100528.67
2023-04-16T11:38:02.383Z,100529.40
2023-04-16T11:40:31.364Z,100530.51
2023-04-16T11:43:04.036Z,100531.53
2023-04-16T11:45:33.291Z,100529.04
2023-04-16T11:48:01.616Z,100529.08
2023-04-16T11:50:30.219Z,100527.38
2023-04-16T11:53:04.167Z,100527.55
2023-04-16T11:55:32.335Z,100527.70
2023-04-16T11:58:11.838Z,100526.17
2023-04-16T12:00:41.736Z,100524.36
2023-04-16T12:03:10.499Z,100521.40
2023-04-16T12:05:40.819Z,100517.60
2023-04-16T12:08:10.272Z,100520.86
2023-04-16T12:10:53.302Z,100517.11
2023-04-16T12:13:23.271Z,100518.33
2023-04-16T12:15:53.185Z,100518.39
2023-04-16T12:18:27.835Z,100520.48
2023-04-16T12:20:56.112Z,100520.23
2023-04-16T12:23:28.913Z,100521.55
2023-04-16T12:26:02.694Z,100523.67
2023-04-16T12:28:33.321Z,100520.46
2023-04-16T12:31:02.423Z,100516.99
2023-04-16T12:33:31.322Z,100518.45
2023-04-16T12:35:59.421Z,100511.14
2023-04-16T12:38:29.932Z,100512.02
2023-04-16T12:40:58.468Z,100509.45
2023-04-16T12:43:28.522Z,100509.80
2023-04-16T12:45:57.469Z,100509.83
2023-04-16T12:48:25.720Z,100511.25
2023-04-16T12:50:56.362Z,100513.11
2023-04-16T12:53:24.897Z,100512.89
2023-04-16T12:55:53.539Z,100513.59
2023-04-16T12:58:22.463Z,100510.98
2023-04-16T13:00:51.825Z,100508.13
2023-04-16T13:03:21.333Z,100510.32
2023-04-16T13:05:49.557Z,100508.66
2023-04-16T13:08:19.786Z,100506.14
2023-04-16T13:10:49.152Z,100505.73
2023-04-16T13:13:18.214Z,100512.52
2023-04-16T13:15:46.597Z,100510.80
2023-04-16T13:18:15.988Z,100512.95
2023-04-16T13:20:45.273Z,100517.33
2023-04-16T13:23:13.465Z,100512.83
2023-04-16T13:25:41.593Z,100511.89
2023-04-16T13:28:10.067Z,100508.11
2023-04-16T13:30:38.273Z,100508.86
2023-04-16T13:33:06.632Z,100507.76
2023-04-16T13:35:37.375Z,100508.23
2023-04-16T13:38:05.988Z,100503.30
2023-04-16T13:40:35.483Z,100503.52
2023-04-16T13:43:04.577Z,100509.42
2023-04-16T13:45:33.763Z,100506.71
2023-04-16T13:48:02.353Z,100505.92
2023-04-16T13:50:31.989Z,100506.35
2023-04-16T13:53:02.057Z,100508.50
2023-04-16T13:55:31.780Z,100507.12
2023-04-16T13:57:59.899Z,100503.90
2023-04-16T14:00:28.067Z,100501.02
2023-04-16T14:02:56.641Z,100506.42
2023-04-16T14:05:27.275Z,100506.48
2023-04-16T14:07:55.776Z,100510.18
2023-04-16T14:10:24.238Z,100510.43
2023-04-16T14:12:52.836Z,100508.46
2023-04-16T14:15:21.376Z,100507.89
2023-04-16T14:17:49.979Z,100506.99
2023-04-16T14:20:19.310Z,100504.48
2023-04-16T14:22:47.831Z,100505.94
2023-04-16T14:25:16.397Z,100502.28
2023-04-16T14:27:44.633Z,100501.02
2023-04-16T14:30:13.082Z,100502.45
2023-04-16T14:32:41.833Z,100501.52
2023-04-16T14:35:10.560Z,100501.48
2023-04-16T14:37:39.745Z,100497.52
2023-04-16T14:40:09.037Z,100499.42
2023-04-16T14:42:37.799Z,100505.02
2023-04-16T14:45:07.751Z,100508.46
2023-04-16T14:47:36.918Z,100505.84
2023-04-16T14:50:06.357Z,100507.39
2023-04-16T14:52:34.954Z,100511.75
2023-04-16T14:55:04.134Z,100513.91
2023-04-16T14:57:33.509Z,100512.61
2023-04-16T15:00:02.033Z,100513.59
2023-04-16T15:02:31.063Z,100509.62
2023-04-16T15:05:00.119Z,100508.70
2023-04-16T15:07:28.464Z,100507.97
2023-04-16T15:09:57.584Z,100504.64
2023-04-16T15:12:27.957Z,100502.11
2023-04-16T15:14:56.539Z,100503.11
2023-04-16T15:17:25.390Z,100503.23
2023-04-16T15:19:53.653Z,100502.77
2023-04-16T15:22:22.250Z,100500.36
2023-04-16T15:24:50.913Z,100501.77
2023-04-16T15:27:19.457Z,100497.41
2023-04-16T15:29:49.676Z,100498.42
2023-04-16T15:32:18.031Z,100499.73
2023-04-16T15:34:46.843Z,100495.48
2023-04-16T15:37:16.255Z,100498.05
2023-04-16T15:39:44.758Z,100499.17
2023-04-16T15:42:13.363Z,100500.82
2023-04-16T15:44:41.716Z,100499.70
2023-04-16T15:47:10.122Z,100496.95
2023-04-16T15:49:38.315Z,100501.34
2023-04-16T15:52:06.860Z,100496.77
2023-04-16T15:54:35.178Z,100497.33
2023-04-16T15:57:03.401Z,100498.39
2023-04-16T15:59:31.722Z,100499.52
2023-04-16T16:01:59.996Z,100500.40
2023-04-16T16:04:29.101Z,100501.48
2023-04-16T16:06:57.386Z,100508.02
2023-04-16T16:09:26.538Z,100508.34
2023-04-16T16:11:55.295Z,100508.70
2023-04-16T16:14:23.713Z,100510.27
2023-04-16T16:16:51.787Z,100516.71
2023-04-16T16:19:19.914Z,100518.38
2023-04-16T16:21:48.058Z,100519.09
2023-04-16T16:24:16.365Z,100519.09
2023-04-16T16:26:44.427Z,100518.80
2023-04-16T16:29:12.850Z,100512.23
2023-04-16T16:31:41.498Z,100507.63
2023-04-16T16:34:16.941Z,100511.23
2023-04-16T16:36:48.736Z,100510.16
2023-04-16T16:39:17.027Z,100509.95
2023-04-16T16:41:45.747Z,100511.04
2023-04-16T16:44:14.109Z,100510.50
2023-04-16T16:46:43.270Z,100514.38
2023-04-16T16:49:11.754Z,100517.61
2023-04-16T16:51:41.359Z,100520.52
2023-04-16T16:54:09.543Z,100526.98
2023-04-16T16:56:37.751Z,100528.40
2023-04-16T16:59:06.567Z,100529.73
2023-04-16T17:01:35.943Z,100536.45
2023-04-16T17:04:04.594Z,100540.36
2023-04-16T17:06:33.491Z,100540.14
2023-04-16T17:09:02.200Z,100543.77
2023-04-16T17:11:31.294Z,100544.58
2023-04-16T17:14:00.155Z,100544.83
2023-04-16T17:16:28.441Z,100545.83
2023-04-16T17:18:57.343Z,100553.23
2023-04-16T17:21:28.024Z,100553.70
2023-04-16T17:23:58.248Z,100554.20
2023-04-16T17:26:27.270Z,100555.84
2023-04-16T17:28:57.722Z,100555.60
2023-04-16T17:31:27.300Z,100552.92
2023-04-16T17:33:55.726Z,100554.27
2023-04-16T17:36:25.574Z,100552.96
2023-04-16T17:38:53.774Z,100558.48
2023-04-16T17:41:22.211Z,100560.29
2023-04-16T17:43:50.738Z,100562.95
2023-04-16T17:46:19.089Z,100567.73
2023-04-16T17:48:48.945Z,100564.92
2023-04-16T17:51:17.635Z,100566.50
2023-04-16T17:53:46.024Z,100568.01
2023-04-16T17:56:14.232Z,100567.29
2023-04-16T17:58:42.497Z,100569.72
2023-04-16T18:01:11.030Z,100570.11
2023-04-16T18:03:39.872Z,100568.66
2023-04-16T18:06:08.200Z,100568.39
2023-04-16T18:08:36.997Z,100569.86
2023-04-16T18:11:08.803Z,100576.15
2023-04-16T18:13:37.398Z,100578.95
2023-04-16T18:16:07.091Z,100579.82
2023-04-16T18:18:35.568Z,100586.27
2023-04-16T18:21:03.862Z,100589.94
2023-04-16T18:23:31.966Z,100588.19
2023-04-16T18:26:00.598Z,100589.23
2023-04-16T18:28:29.031Z,100591.71
2023-04-16T18:31:05.021Z,100600.11
2023-04-16T18:33:54.157Z,100593.92
2023-04-16T18:36:22.688Z,100599.50
2023-04-16T18:39:00.882Z,100596.00
2023-04-16T18:41:31.504Z,100594.77
2023-04-16T18:44:00.012Z,100595.91
2023-04-16T18:46:28.153Z,100592.52
2023-04-16T18:48:56.578Z,100591.09
2023-04-16T18:51:25.213Z,100592.60
2023-04-16T18:53:53.566Z,100591.95
2023-04-16T18:56:21.767Z,100589.73
2023-04-16T18:58:50.057Z,100590.75
2023-04-16T19:01:18.648Z,100593.52
2023-04-16T19:03:47.591Z,100591.84
2023-04-16T19:06:15.885Z,100593.79
2023-04-16T19:08:44.102Z,100589.32
2023-04-16T19:11:12.427Z,100589.77
2023-04-16T19:13:40.815Z,100589.25
2023-04-16T19:16:11.776Z,100592.40
2023-04-16T19:18:40.844Z,100589.98
2023-04-16T19:21:11.133Z,100591.45
2023-04-16T19:23:39.747Z,100586.86
2023-04-16T19:26:07.941Z,100589.11
2023-04-16T19:28:38.587Z,100587.16
2023-04-16T19:31:07.011Z,100583.77
2023-04-16T19:33:35.870Z,100580.13
2023-04-16T19:36:04.419Z,100576.45
2023-04-16T19:38:36.870Z,100583.27
2023-04-16T19:41:05.571Z,100581.72
2023-04-16T19:43:34.218Z,100581.02
2023-04-16T19:46:02.524Z,100582.70
2023-04-16T19:48:32.741Z,100579.08
2023-04-16T19:51:04.454Z,100578.27
2023-04-16T19:53:34.166Z,100574.91
2023-04-16T19:56:02.427Z,100574.40
2023-04-16T19:58:30.819Z,100570.92
2023-04-16T20:00:59.591Z,100567.06
2023-04-16T20:03:28.019Z,100563.51
2023-04-16T20:05:56.411Z,100557.97
2023-04-16T20:08:24.691Z,100555.41
2023-04-16T20:10:54.164Z,100552.04
2023-04-16T20:13:22.459Z,100554.51
2023-04-16T20:15:53.979Z,100556.65
2023-04-16T20:18:23.333Z,100553.39
2023-04-16T20:20:51.677Z,100555.07
2023-04-16T20:23:20.326Z,100555.59
2023-04-16T20:25:48.822Z,100558.02
2023-04-16T20:28:21.309Z,100559.45
2023-04-16T20:30:50.976Z,100555.97
2023-04-16T20:33:21.218Z,100556.34
2023-04-16T20:35:50.999Z,100556.70
2023-04-16T20:38:23.983Z,100555.27
2023-04-16T20:41:06.559Z,100555.88
2023-04-16T20:43:38.647Z,100551.16
2023-04-16T20:46:11.076Z,100549.30
2023-04-16T20:48:39.337Z,100552.40
2023-04-16T20:51:09.635Z,100550.24
2023-04-16T20:53:38.509Z,100551.02
2023-04-16T20:56:09.074Z,100546.33
2023-04-16T20:58:40.129Z,100545.48
2023-04-16T21:01:08.570Z,100546.19
2023-04-16T21:03:37.266Z,100550.53
2023-04-16T21:07:36.987Z,100546.77
2023-04-16T21:10:05.888Z,100547.75
2023-04-16T21:12:34.151Z,100549.13
2023-04-16T21:15:02.850Z,100549.81
2023-04-16T21:17:31.796Z,100550.52
2023-04-16T21:19:59.984Z,100547.83
2023-04-16T21:22:28.418Z,100543.00
2023-04-16T21:24:56.625Z,100536.16
2023-04-16T21:27:24.834Z,100537.70
2023-04-16T21:29:53.248Z,100534.93
2023-04-16T21:32:21.402Z,100532.38
2023-04-16T21:34:49.819Z,100533.29
2023-04-16T21:37:18.032Z,100532.37
2023-04-16T21:39:46.273Z,100531.98
2023-04-16T21:42:14.383Z,100526.58
2023-04-16T21:44:42.716Z,100527.31
2023-04-16T21:47:11.172Z,100524.70
2023-04-16T21:49:39.463Z,100525.82
2023-04-16T21:52:14.374Z,100521.38
2023-04-16T21:54:42.838Z,100521.29
2023-04-16T21:57:11.717Z,100515.17
2023-04-16T21:59:39.974Z,100518.58
2023-04-16T22:02:08.220Z,100518.15
2023-04-16T22:04:40.086Z,100517.20
2023-04-16T22:07:11.849Z,100517.29
2023-04-16T22:09:41.014Z,100518.96
2023-04-16T22:12:12.212Z,100512.79
2023-04-16T22:14:46.156Z,100509.34
2023-04-16T22:17:18.084Z,100509.27
2023-04-16T22:19:47.238Z,100512.30
2023-04-16T22:22:15.756Z,100508.98
2023-04-16T22:24:44.646Z,100510.09
2023-04-16T22:27:12.984Z,100510.75
2023-04-16T22:29:41.184Z,100506.29
2023-04-16T22:32:09.817Z,100503.83
2023-04-16T22:34:37.996Z,100506.02
2023-04-16T22:37:08.107Z,100502.70
2023-04-16T22:39:37.346Z,100500.77
2023-04-16T22:42:05.680Z,100501.77
2023-04-16T22:44:33.873Z,100500.29
2023-04-16T22:47:02.264Z,100495.98
2023-04-16T22:49:33.137Z,100491.09
2023-04-16T22:52:01.630Z,100492.57
2023-04-16T22:54:30.724Z,100488.27
2023-04-16T22:56:59.370Z,100489.08
2023-04-16T22:59:27.579Z,100489.31
2023-04-16T23:01:56.199Z,100491.33
2023-04-16T23:04:24.513Z,100486.38
2023-04-16T23:06:52.860Z,100486.30
2023-04-16T23:09:22.489Z,100479.20
2023-04-16T23:11:50.986Z,100482.17
2023-04-16T23:14:19.585Z,100479.16
2023-04-16T23:16:47.834Z,100479.15
2023-04-16T23:19:16.385Z,100480.04
2023-04-16T23:21:44.967Z,100472.71
2023-04-16T23:24:13.213Z,100470.80
2023-04-16T23:26:41.909Z,100468.63
2023-04-16T23:29:10.614Z,100469.23
2023-04-16T23:31:40.032Z,100464.22
2023-04-16T23:34:08.305Z,100462.31
2023-04-16T23:36:37.336Z,100458.57
2023-04-16T23:39:05.634Z,100461.34
2023-04-16T23:41:34.773Z,100457.93
2023-04-16T23:44:02.942Z,100457.21
2023-04-16T23:46:31.629Z,100456.96
2023-04-16T23:49:00.151Z,100452.70
2023-04-16T23:51:28.304Z,100455.13
2023-04-16T23:53:56.625Z,100453.43
2023-04-16T23:56:24.800Z,100453.03
2023-04-16T23:58:52.936Z,100455.10
